Flight Track Log - Related Links

Times and Time Zones

All times are in EDT time to prevent confusion due to time zone crossing. See the FLG3429 flight status page for this flight to view local times or setup timezone preferences in your user account.

Time Position Orientation Groundspeed Altitude Reporting Facility
EDT Latitude Longitude Course Direction KTS MPH feet Rate Location/Type
Wed 04:27:06 PM 46.2486 -119.0611 75° East 234 269 4,900  Level Salt Lake Center
Wed 04:28:00 PM 46.4064 -118.4426 73° East  Level FlightAware Approximate
Wed 04:28:09 PM 46.3006 -118.9492 56° Northeast 273 314 8,000  Level Seattle Center
Wed 04:29:00 PM 46.4434 -118.2718 72° East  Level FlightAware Approximate
Wed 04:29:10 PM 46.3467 -118.8497 56° Northeast 295 339 10,300  Level Seattle Center
Wed 04:30:00 PM 46.4814 -118.1013 72° East  Level FlightAware Approximate
Wed 04:30:11 PM 46.3578 -118.7164 83° East 332 382 11,800  Level Seattle Center
Wed 04:31:00 PM 46.5190 -117.9319 72° East  Level FlightAware Approximate
Wed 04:31:12 PM 46.3739 -118.5744 81° East 354 407 13,800  Level Seattle Center
Wed 04:32:00 PM 46.5532 -117.7609 75° East  Level FlightAware Approximate
Wed 04:32:13 PM 46.3906 -118.4289 81° East 365 420 16,000  Level Seattle Center
Wed 04:33:14 PM 46.4078 -118.2761 81° East 377 434 17,800 1,672 Climbing Seattle Center
Wed 04:34:15 PM 46.4256 -118.1194 81° East 391 450 19,400 1,377 Climbing Seattle Center
Wed 04:35:16 PM 46.4425 -117.9569 81° East 404 465 20,600 1,279 Climbing Seattle Center
Wed 04:36:17 PM 46.4614 -117.7853 81° East 430 495 22,000 1,328 Climbing Seattle Center
Wed 04:37:18 PM 46.4800 -117.6072 81° East 445 512 23,300 1,180 Climbing Seattle Center
Wed 04:38:19 PM 46.4989 -117.4264 81° East 453 521 24,400 1,279 Climbing Seattle Center
Wed 04:39:20 PM 46.5214 -117.1992 82° East 474 545 25,900 1,377 Climbing Seattle Center
Wed 04:40:21 PM 46.5411 -117.0061 81° East 483 556 27,200 1,082 Climbing Seattle Center
Wed 04:41:22 PM 46.5606 -116.8086 82° East 496 571 28,100 1,033 Climbing Seattle Center
Wed 04:42:23 PM 46.5792 -116.6081 82° East 501 577 29,300 1,328 Climbing Seattle Center
Wed 04:43:24 PM 46.5983 -116.4122 82° East 497 572 30,800 1,317 Climbing Seattle Center
Wed 04:44:26 PM 46.6161 -116.2172 82° East 492 566 32,000 1,073 Climbing Seattle Center
Wed 04:45:27 PM 46.6333 -116.0269 82° East 481 554 33,000 689 Climbing Seattle Center
Wed 04:46:28 PM 46.6517 -115.8286 82° East 492 566 33,400 738 Climbing Seattle Center
Wed 04:47:29 PM 46.6450 -115.6342 93° East 482 555 34,500 787 Climbing Seattle Center
Wed 04:48:30 PM 46.6086 -115.4097 103° East 474 545 35,000 246 Climbing Seattle Center
Wed 04:49:31 PM 46.5742 -115.2192 105° East 487 560 35,000  Level Seattle Center
Wed 04:50:32 PM 46.5350 -115.0261 106° East 497 572 35,000  Level Seattle Center
Wed 04:51:33 PM 46.4961 -114.8536 108° East 504 580 35,000 295 Level Seattle Center
Wed 04:52:34 PM 46.4419 -114.6197 109° East 510 587 35,600 488 Climbing Seattle Center
Wed 04:53:36 PM 46.3972 -114.4308 109° East 501 577 36,000 195 Climbing Seattle Center
Wed 04:54:37 PM 46.3567 -114.2558 109° East 469 540 36,000  Level Seattle Center
Wed 04:55:52 PM 46.3017 -114.0539 111° Southeast 451 519 36,000  Level Salt Lake Center
Wed 04:56:53 PM 46.2517 -113.8894 114° Southeast 449 517 36,000  Level Salt Lake Center
Wed 04:57:55 PM 46.1956 -113.7217 116° Southeast 466 536 36,000  Level Salt Lake Center
Wed 04:58:57 PM 46.1114 -113.5414 124° Southeast 465 535 36,000  Level Salt Lake Center
Wed 04:59:58 PM 46.0339 -113.3867 126° Southeast 475 547 36,000  Level Salt Lake Center
Wed 05:01:00 PM 45.9567 -113.2317 126° Southeast 477 549 36,000  Level Salt Lake Center
Wed 05:02:02 PM 45.8803 -113.0731 125° Southeast 484 557 36,000 49 Level Salt Lake Center
Wed 05:03:03 PM 45.8078 -112.9100 122° Southeast 488 562 36,100 488 Climbing Salt Lake Center
Wed 05:04:05 PM 45.7828 -112.7119 100° East 511 588 37,000 435 Climbing Salt Lake Center
Wed 05:05:07 PM 45.8061 -112.5078 81° East 523 602 37,000  Level Salt Lake Center
Wed 05:06:08 PM 45.8378 -112.2642 79° East 519 597 37,000  Level Salt Lake Center
Wed 05:07:10 PM 45.8633 -112.0622 80° East 515 593 37,000  Level Salt Lake Center
Wed 05:08:12 PM 45.8886 -111.8619 80° East 511 588 37,000  Level Salt Lake Center
Wed 05:09:13 PM 45.9139 -111.6628 80° East 506 582 37,000  Level Salt Lake Center
Wed 05:10:15 PM 45.9386 -111.4622 80° East 506 582 37,000  Level Salt Lake Center
Wed 05:11:17 PM 45.9644 -111.2539 80° East 516 594 37,000  Level Salt Lake Center
Wed 05:12:18 PM 45.9892 -111.0406 80° East 527 606 37,000  Level Salt Lake Center
Wed 05:13:20 PM 46.0147 -110.8283 80° East 530 610 37,000  Level Salt Lake Center
Wed 05:14:22 PM 46.0383 -110.6175 81° East 531 611 37,000  Level Salt Lake Center
Wed 05:15:23 PM 46.0614 -110.4003 81° East 527 606 37,000  Level Salt Lake Center
Wed 05:16:25 PM 46.0883 -110.1653 81° East 531 611 37,000  Level Salt Lake Center
Wed 05:17:27 PM 46.1103 -109.9653 81° East 530 610 37,000  Level Salt Lake Center
Wed 05:18:29 PM 46.1367 -109.7303 81° East 534 615 37,000  Level Salt Lake Center
Wed 05:19:30 PM 46.1569 -109.5314 82° East 524 603 37,000  Level Salt Lake Center
Wed 05:20:32 PM 46.1778 -109.3306 81° East 528 608 37,000  Level Salt Lake Center
Wed 05:21:34 PM 46.2008 -109.0997 82° East 521 600 37,000  Level Salt Lake Center
Wed 05:22:36 PM 46.2203 -108.8994 82° East 524 603 37,000  Level Salt Lake Center
Wed 05:23:38 PM 46.2433 -108.6681 82° East 521 600 37,000  Level Salt Lake Center
Wed 05:24:39 PM 46.2619 -108.4722 82° East 513 590 37,000  Level Salt Lake Center
Wed 05:25:41 PM 46.2825 -108.2414 83° East 518 596 37,000  Level Salt Lake Center
Wed 05:26:43 PM 46.3000 -108.0458 83° East 512 589 37,000  Level Salt Lake Center
Wed 05:27:45 PM 46.3178 -107.8492 82° East 513 590 37,000  Level Salt Lake Center
Wed 05:28:47 PM 46.3375 -107.6214 83° East 511 588 37,000  Level Salt Lake Center
Wed 05:29:49 PM 46.3536 -107.4214 83° East 522 601 37,000  Level Salt Lake Center
Wed 05:30:51 PM 46.3731 -107.1942 83° East 513 590 37,000  Level Salt Lake Center
Wed 05:31:52 PM 46.3894 -106.9997 83° East 509 586 37,000  Level Salt Lake Center
Wed 05:32:54 PM 46.4067 -106.7703 84° East 510 587 37,000  Level Salt Lake Center
Wed 05:33:56 PM 46.4228 -106.5744 83° East 511 588 37,000  Level Salt Lake Center
Wed 05:34:58 PM 46.4375 -106.3789 84° East 511 588 37,000  Level Salt Lake Center
Wed 05:36:00 PM 46.4525 -106.1467 85° East 515 593 37,000  Level Salt Lake Center
Wed 05:37:02 PM 46.4661 -105.9500 84° East 514 592 37,000  Level Salt Lake Center
Wed 05:38:04 PM 46.4831 -105.7200 84° East 513 590 37,000  Level Salt Lake Center
Wed 05:39:06 PM 46.4958 -105.5233 85° East 513 590 37,000  Level Salt Lake Center
Wed 05:40:07 PM 46.5103 -105.2931 85° East 512 589 37,000  Level Salt Lake Center
Wed 05:41:09 PM 46.5236 -105.0972 84° East 511 588 37,000  Level Salt Lake Center
Wed 05:42:11 PM 46.5383 -104.8678 85° East 511 588 37,000  Level Salt Lake Center
Wed 05:43:13 PM 46.5503 -104.6844 85° East 511 588 37,000  Level Salt Lake Center
Wed 05:44:15 PM 46.5633 -104.4797 85° East 512 589 37,000  Level Salt Lake Center
Wed 05:45:17 PM 46.5739 -104.2742 86° East 513 590 37,000  Level Salt Lake Center
Wed 05:46:19 PM 46.5892 -104.0294 85° East 512 589 37,000  Level Salt Lake Center
Wed 05:47:20 PM 46.5992 -103.8239 86° East 512 589 37,000  Level Salt Lake Center
Wed 05:48:23 PM 46.6108 -103.6197 85° East 512 589 37,000  Level Salt Lake Center
Wed 05:49:11 PM 46.6200 -103.4608 85° East 509 586 37,000  Level Minneapolis Center
Wed 05:50:13 PM 46.6303 -103.2603 86° East 504 580 37,000  Level Minneapolis Center
Wed 05:51:15 PM 46.6389 -103.0597 86° East 501 577 37,000  Level Minneapolis Center
Wed 05:52:17 PM 46.6492 -102.8225 86° East 495 570 37,000  Level Minneapolis Center
Wed 05:53:19 PM 46.6592 -102.6261 86° East 491 565 37,000  Level Minneapolis Center
Wed 05:54:21 PM 46.6675 -102.4300 86° East 490 564 37,000  Level Minneapolis Center
Wed 05:55:23 PM 46.6750 -102.2347 87° East 489 563 37,000  Level Minneapolis Center
Wed 05:56:25 PM 46.6836 -102.0386 86° East 486 559 37,000  Level Minneapolis Center
Wed 05:57:27 PM 46.6889 -101.8458 88° East 482 555 37,000  Level Minneapolis Center
Wed 05:58:29 PM 46.6964 -101.6186 87° East 483 556 37,000  Level Minneapolis Center
Wed 05:59:31 PM 46.7014 -101.4267 88° East 478 550 37,000  Level Minneapolis Center
Wed 06:00:33 PM 46.7083 -101.2294 87° East 482 555 37,000  Level Minneapolis Center
Wed 06:01:35 PM 46.7133 -101.0325 88° East 485 558 37,000  Level Minneapolis Center
Wed 06:02:37 PM 46.7203 -100.7986 87° East 482 555 37,000  Level Minneapolis Center
Wed 06:03:39 PM 46.7244 -100.5994 88° East 489 563 37,000  Level Minneapolis Center
Wed 06:04:41 PM 46.7292 -100.3997 88° East 491 565 37,000  Level Minneapolis Center
Wed 06:05:43 PM 46.7333 -100.1958 88° East 499 574 37,000  Level Minneapolis Center
Wed 06:06:46 PM 46.7372 -100.0056 88° East 503 579 37,000  Level Minneapolis Center
Wed 06:07:48 PM 46.7417 -99.7569 88° East 511 588 37,000  Level Minneapolis Center
Wed 06:08:50 PM 46.7447 -99.5517 89° East 511 588 37,000  Level Minneapolis Center
Wed 06:09:52 PM 46.7467 -99.3497 89° East 504 580 37,000  Level Minneapolis Center
Wed 06:10:54 PM 46.7503 -99.1536 88° East 493 567 37,000  Level Minneapolis Center
Wed 06:11:56 PM 46.7522 -98.9581 89° East 486 559 37,000  Level Minneapolis Center
Wed 06:12:58 PM 46.7536 -98.7614 89° East 487 560 37,000  Level Minneapolis Center
Wed 06:14:00 PM 46.7561 -98.5258 89° East 488 562 37,000  Level Minneapolis Center
Wed 06:15:02 PM 46.7569 -98.3242 90° East 495 570 37,000  Level Minneapolis Center
Wed 06:16:04 PM 46.7575 -98.1200 90° East 504 580 37,000  Level Minneapolis Center
Wed 06:17:06 PM 46.7572 -97.9144 90° East 509 586 37,000  Level Minneapolis Center
Wed 06:18:08 PM 46.7581 -97.7092 90° East 509 586 37,000  Level Minneapolis Center
Wed 06:19:09 PM 46.7567 -97.4647 90° East 508 585 37,000  Level Minneapolis Center
Wed 06:20:11 PM 46.7575 -97.2567 90° East 513 590 37,000 -48 Level Minneapolis Center
Wed 06:21:13 PM 46.7556 -97.0533 91° East 510 587 36,900  Descending Minneapolis Center
Wed 06:22:15 PM 46.7481 -96.8528 93° East 502 578 37,000 48 Climbing Minneapolis Center
Wed 06:23:18 PM 46.6967 -96.6686 112° Southeast 495 570 37,000  Level Minneapolis Center
Wed 06:24:20 PM 46.6331 -96.4500 113° Southeast 491 565 37,000  Level Minneapolis Center
Wed 06:25:22 PM 46.5781 -96.2717 114° Southeast 487 560 37,000  Level Minneapolis Center
Wed 06:26:24 PM 46.5242 -96.0908 113° Southeast 489 563 37,000  Level Minneapolis Center
Wed 06:27:26 PM 46.4689 -95.9142 114° Southeast 485 558 37,000  Level Minneapolis Center
Wed 06:28:28 PM 46.4122 -95.7336 114° Southeast 483 556 37,000 -677 Level Minneapolis Center
Wed 06:29:30 PM 46.3572 -95.5594 115° Southeast 479 551 35,600 -1,548 Descending Minneapolis Center
Wed 06:30:32 PM 46.2986 -95.3692 114° Southeast 477 549 33,800 -1,645 Descending Minneapolis Center
Wed 06:31:34 PM 46.2433 -95.1944 115° Southeast 478 550 32,200 -1,500 Descending Minneapolis Center
Wed 06:32:36 PM 46.1872 -95.0175 115° Southeast 483 556 30,700 -1,694 Descending Minneapolis Center
Wed 06:33:38 PM 46.1181 -94.8031 115° Southeast 489 563 28,700 -1,742 Descending Minneapolis Center
Wed 06:34:40 PM 46.0497 -94.6439 122° Southeast 478 550 27,100 -1,548 Descending Minneapolis Center
Wed 06:35:42 PM 45.9775 -94.4944 125° Southeast 462 532 25,500 -1,500 Descending Minneapolis Center
Wed 06:36:44 PM 45.9086 -94.3467 124° Southeast 453 521 24,000 -823 Descending Minneapolis Center
Wed 06:37:46 PM 45.8383 -94.2003 125° Southeast 448 516 23,800 -871 Descending Minneapolis Center
Wed 06:38:48 PM 45.7678 -94.0558 125° Southeast 446 513 22,200 -1,790 Descending Minneapolis Center
Wed 06:39:50 PM 45.6833 -93.8814 125° Southeast 446 513 20,100 -1,790 Descending Minneapolis Center
Wed 06:40:52 PM 45.6153 -93.7436 125° Southeast 433 498 18,500 -1,597 Descending Minneapolis Center
Wed 06:41:54 PM 45.5511 -93.6100 124° Southeast 414 476 16,800 -1,597 Descending Minneapolis Center
Wed 06:42:56 PM 45.4564 -93.5386 152° Southeast 390 449 15,200 -1,548 Descending Minneapolis Center
Wed 06:43:58 PM 45.3564 -93.4850 159° South 387 445 13,600 -1,548 Descending Minneapolis Center
Wed 06:45:00 PM 45.2586 -93.4325 159° South 377 434 12,000 -1,258 Descending Minneapolis Center
Wed 06:46:02 PM 45.1456 -93.3725 159° South 362 417 11,000 -677 Descending Minneapolis Center
Wed 06:47:04 PM 45.0533 -93.3217 159° South 357 411 10,600 -823 Descending Minneapolis Center
Wed 06:48:06 PM 44.9897 -93.2475 140° Southeast 300 345 9,300 -1,258 Descending Minneapolis Center
Wed 06:49:08 PM 44.9558 -93.1403 114° Southeast 293 337 8,000 -1,452 Descending Minneapolis Center
Wed 06:50:10 PM 44.9261 -93.0369 112° Southeast 283 326 6,300 -1,452 Descending Minneapolis Center
Wed 06:51:12 PM 44.8861 -92.9444 121° Southeast 275 316 5,000 -629 Descending Minneapolis Center
Wed 06:52:14 PM 44.8269 -92.9122 159° South 261 300 5,000 -677 Level Minneapolis Center
Wed 06:53:16 PM 44.8117 -93.0092 258° West 218 251 3,600 -1,355 Descending Minneapolis Center

Login

Don't have an account? Register now (free) for customized features, flight alerts, and more!